Time;durP1;ratioP1;P1;durP2;ratioP2;P2;SDS_P1;SDS_P2;PMS_P1;PMS_P2;Temp;Humidity;BMP_temperature;BMP_pressure;BME280_temperature;BME280_humidity;BME280_pressure;Samples;Min_cycle;Max_cycle;Signal;HPM_P1;HPM_P2
2022/01/02 00:00:10;;;;;;;8.75;4.40;;;;;;;;;;4990178;28;20509;-60
2022/01/02 00:02:36;;;;;;;9.95;4.90;;;;;;;;;;4990727;28;20213;-60
2022/01/02 00:05:03;;;;;;;9.00;4.32;;;;;;;;;;4989213;28;20290;-61
2022/01/02 00:07:29;;;;;;;9.63;4.50;;;;;;;;;;4970544;28;20276;-59
2022/01/02 00:09:55;;;;;;;9.20;4.90;;;;;;;;;;4971482;28;20210;-60
2022/01/02 00:12:23;;;;;;;11.30;4.40;;;;;;;;;;4985800;28;20224;-60
2022/01/02 00:14:48;;;;;;;7.45;4.05;;;;;;;;;;4970593;28;20581;-60
2022/01/02 00:17:16;;;;;;;10.25;4.53;;;;;;;;;;4985878;28;20209;-60
2022/01/02 00:19:45;;;;;;;8.68;4.05;;;;;;;;;;4971123;28;20214;-59
2022/01/02 00:22:18;;;;;;;8.93;4.70;;;;;;;;;;4978134;28;20296;-59
2022/01/02 00:24:45;;;;;;;8.88;4.43;;;;;;;;;;5004786;28;20205;-59
2022/01/02 00:27:10;;;;;;;8.77;4.47;;;;;;;;;;4992333;28;20223;-59
2022/01/02 00:29:37;;;;;;;7.75;4.20;;;;;;;;;;4993954;28;20209;-59
2022/01/02 00:32:03;;;;;;;8.05;4.00;;;;;;;;;;4994080;28;20213;-59
2022/01/02 00:34:28;;;;;;;6.65;3.67;;;;;;;;;;5009134;28;20272;-59
2022/01/02 00:36:53;;;;;;;10.95;3.92;;;;;;;;;;5008711;28;20222;-59
2022/01/02 00:39:18;;;;;;;8.38;3.72;;;;;;;;;;4993952;28;20216;-59
2022/01/02 00:41:57;;;;;;;7.80;3.70;;;;;;;;;;4993970;28;20691;-59
2022/01/02 00:44:23;;;;;;;7.85;3.90;;;;;;;;;;5008171;28;20237;-59
2022/01/02 00:46:53;;;;;;;7.07;3.67;;;;;;;;;;4994042;28;20245;-59
2022/01/02 00:49:21;;;;;;;8.48;3.80;;;;;;;;;;5008277;28;20611;-60
2022/01/02 00:51:47;;;;;;;8.70;4.00;;;;;;;;;;5008578;28;20213;-59
2022/01/02 00:54:14;;;;;;;9.05;4.18;;;;;;;;;;5008498;28;20236;-59
2022/01/02 00:56:40;;;;;;;6.65;3.85;;;;;;;;;;4993215;28;20344;-59
2022/01/02 00:59:05;;;;;;;8.98;4.20;;;;;;;;;;5008544;28;20237;-59
2022/01/02 01:01:33;;;;;;;9.90;4.38;;;;;;;;;;4993930;28;20672;-60
2022/01/02 01:03:58;;;;;;;6.78;3.50;;;;;;;;;;4993187;28;20304;-60
2022/01/02 01:06:25;;;;;;;7.85;3.85;;;;;;;;;;4980938;28;20309;-60
2022/01/02 01:08:52;;;;;;;7.32;3.83;;;;;;;;;;4974053;28;20213;-60
2022/01/02 01:11:17;;;;;;;8.43;3.85;;;;;;;;;;4973152;28;20704;-60
2022/01/02 01:13:43;;;;;;;8.07;3.80;;;;;;;;;;4974256;28;20238;-60
2022/01/02 01:16:08;;;;;;;9.80;4.18;;;;;;;;;;4979455;28;20220;-61
2022/01/02 01:18:33;;;;;;;8.90;3.90;;;;;;;;;;4993162;28;20224;-60
2022/01/02 01:20:59;;;;;;;10.50;3.95;;;;;;;;;;4993685;28;20223;-61
2022/01/02 01:23:24;;;;;;;6.45;3.88;;;;;;;;;;4974851;28;20661;-61
2022/01/02 01:25:49;;;;;;;11.85;4.20;;;;;;;;;;4973506;28;20574;-61
2022/01/02 01:28:15;;;;;;;7.45;3.65;;;;;;;;;;4973589;28;20218;-61
2022/01/02 01:30:40;;;;;;;9.32;4.00;;;;;;;;;;4973672;28;20210;-62
2022/01/02 01:33:05;;;;;;;11.23;4.10;;;;;;;;;;4972949;28;20257;-62
2022/01/02 01:35:31;;;;;;;9.18;4.30;;;;;;;;;;4974031;28;20752;-62
2022/01/02 01:37:56;;;;;;;8.10;3.60;;;;;;;;;;4972892;28;20221;-62
2022/01/02 01:40:21;;;;;;;10.80;4.32;;;;;;;;;;4972763;28;20629;-62
2022/01/02 01:42:57;;;;;;;8.48;3.78;;;;;;;;;;4973761;28;20230;-62
2022/01/02 01:47:48;;;;;;;10.48;4.05;;;;;;;;;;4988025;28;20279;-61
2022/01/02 01:50:14;;;;;;;10.98;4.30;;;;;;;;;;4972988;28;20230;-62
2022/01/02 01:52:39;;;;;;;10.60;3.85;;;;;;;;;;4973325;28;20683;-61
2022/01/02 01:55:04;;;;;;;10.75;4.30;;;;;;;;;;4972550;28;20230;-62
2022/01/02 01:57:30;;;;;;;9.88;3.75;;;;;;;;;;4973333;28;20213;-61
2022/01/02 01:59:55;;;;;;;11.60;4.00;;;;;;;;;;4987403;28;20561;-61
2022/01/02 02:02:21;;;;;;;9.52;3.78;;;;;;;;;;4972834;28;20221;-61
2022/01/02 02:04:46;;;;;;;8.40;3.70;;;;;;;;;;4973269;28;20225;-61
2022/01/02 02:07:11;;;;;;;10.68;3.85;;;;;;;;;;4991069;28;20704;-61
2022/01/02 02:09:56;;;;;;;8.25;3.75;;;;;;;;;;4992498;28;20466;-61
2022/01/02 02:12:21;;;;;;;8.93;3.53;;;;;;;;;;4991924;28;20301;-61
2022/01/02 02:14:46;;;;;;;9.35;3.80;;;;;;;;;;5006951;28;20287;-61
2022/01/02 02:17:12;;;;;;;11.23;3.53;;;;;;;;;;4991946;28;20210;-61
2022/01/02 02:19:37;;;;;;;12.00;3.80;;;;;;;;;;4972980;28;20605;-61
2022/01/02 02:22:03;;;;;;;10.60;3.55;;;;;;;;;;4978834;28;20209;-61
2022/01/02 02:24:28;;;;;;;10.18;4.00;;;;;;;;;;4992352;28;20699;-60
2022/01/02 02:26:53;;;;;;;9.25;3.60;;;;;;;;;;4992035;28;20233;-60
2022/01/02 02:29:18;;;;;;;9.35;3.80;;;;;;;;;;4991198;28;20213;-61
2022/01/02 02:31:44;;;;;;;9.65;3.78;;;;;;;;;;4992377;28;20209;-60
2022/01/02 02:34:09;;;;;;;10.88;3.70;;;;;;;;;;4991340;28;20699;-60
2022/01/02 02:36:34;;;;;;;8.63;3.90;;;;;;;;;;4991778;28;20209;-60
2022/01/02 02:38:59;;;;;;;11.50;4.28;;;;;;;;;;4992112;28;20688;-60
2022/01/02 02:41:31;;;;;;;11.35;3.80;;;;;;;;;;4991286;28;20228;-60
2022/01/02 02:44:05;;;;;;;12.40;3.97;;;;;;;;;;4991497;28;20340;-60
2022/01/02 02:49:14;;;;;;;9.43;3.55;;;;;;;;;;4989923;28;20598;-60
2022/01/02 02:51:47;;;;;;;11.43;4.05;;;;;;;;;;4991512;28;20205;-60
2022/01/02 02:54:18;;;;;;;12.63;3.70;;;;;;;;;;4991047;28;20692;-61
2022/01/02 02:56:53;;;;;;;11.35;3.90;;;;;;;;;;4991183;28;20224;-61
2022/01/02 02:59:19;;;;;;;12.25;3.70;;;;;;;;;;4991213;28;20239;-61
2022/01/02 03:01:44;;;;;;;9.65;3.67;;;;;;;;;;4991301;28;20221;-60
2022/01/02 03:04:09;;;;;;;10.88;3.25;;;;;;;;;;4990661;28;20217;-60
2022/01/02 03:06:34;;;;;;;11.98;3.63;;;;;;;;;;4977874;28;20221;-60
2022/01/02 03:09:06;;;;;;;11.40;3.25;;;;;;;;;;4971872;28;20608;-60
2022/01/02 03:11:33;;;;;;;13.02;3.72;;;;;;;;;;4971156;28;20283;-60
2022/01/02 03:13:58;;;;;;;9.68;3.28;;;;;;;;;;4971856;28;20676;-61
2022/01/02 03:16:23;;;;;;;10.52;3.22;;;;;;;;;;4979460;28;20295;-61
2022/01/02 03:18:49;;;;;;;8.10;2.95;;;;;;;;;;4990782;28;20320;-61
2022/01/02 03:21:14;;;;;;;12.30;3.28;;;;;;;;;;4990517;28;20213;-61
2022/01/02 03:23:39;;;;;;;10.95;3.15;;;;;;;;;;4971696;28;20213;-61
2022/01/02 03:26:05;;;;;;;12.27;3.20;;;;;;;;;;4970867;28;20232;-61
2022/01/02 03:28:30;;;;;;;14.23;3.22;;;;;;;;;;4971774;28;20571;-61
2022/01/02 03:30:55;;;;;;;10.98;3.25;;;;;;;;;;4971590;28;20606;-61
2022/01/02 03:33:20;;;;;;;11.77;3.00;;;;;;;;;;4970696;28;20276;-60
2022/01/02 03:35:46;;;;;;;9.48;3.05;;;;;;;;;;4971858;28;20213;-60
2022/01/02 03:38:11;;;;;;;13.60;3.42;;;;;;;;;;4970966;28;20575;-61
2022/01/02 03:40:36;;;;;;;13.40;3.38;;;;;;;;;;4971308;28;20201;-61
2022/01/02 03:43:02;;;;;;;14.05;2.83;;;;;;;;;;4970963;28;20217;-61
2022/01/02 03:45:27;;;;;;;14.60;3.60;;;;;;;;;;4971063;28;20240;-61
2022/01/02 03:47:52;;;;;;;10.75;3.38;;;;;;;;;;4971369;28;20693;-61
2022/01/02 03:50:18;;;;;;;15.32;3.13;;;;;;;;;;4970712;28;20238;-61
2022/01/02 03:52:43;;;;;;;10.98;3.63;;;;;;;;;;4971023;28;20210;-61
2022/01/02 03:55:09;;;;;;;12.10;3.00;;;;;;;;;;4971062;28;20217;-61
2022/01/02 03:57:34;;;;;;;13.75;3.47;;;;;;;;;;4971228;28;20305;-61
2022/01/02 03:59:59;;;;;;;12.32;3.80;;;;;;;;;;4970752;28;20213;-61
2022/01/02 04:02:24;;;;;;;10.25;3.00;;;;;;;;;;4973973;28;20209;-61
2022/01/02 04:04:50;;;;;;;13.68;3.60;;;;;;;;;;4975205;28;20223;-61
2022/01/02 04:07:15;;;;;;;10.80;2.85;;;;;;;;;;4993685;28;20239;-62
2022/01/02 04:09:40;;;;;;;8.43;3.05;;;;;;;;;;4995084;28;20211;-62
2022/01/02 04:12:06;;;;;;;11.88;3.05;;;;;;;;;;4994070;28;20217;-62
2022/01/02 04:14:31;;;;;;;13.32;3.00;;;;;;;;;;4994196;28;20666;-62
2022/01/02 04:16:56;;;;;;;12.02;3.33;;;;;;;;;;4981894;28;20217;-61
2022/01/02 04:19:21;;;;;;;9.63;3.10;;;;;;;;;;4974438;28;20744;-61
2022/01/02 04:21:47;;;;;;;11.32;2.97;;;;;;;;;;4979598;28;20213;-61
2022/01/02 04:24:12;;;;;;;9.32;3.00;;;;;;;;;;5009100;28;20716;-62
2022/01/02 04:26:37;;;;;;;12.95;3.20;;;;;;;;;;4994340;28;20719;-61
2022/01/02 04:29:03;;;;;;;8.90;2.90;;;;;;;;;;5008424;28;20230;-61
2022/01/02 04:31:28;;;;;;;8.30;3.05;;;;;;;;;;5009414;28;20222;-61
2022/01/02 04:33:53;;;;;;;10.07;2.80;;;;;;;;;;4994153;28;20211;-61
2022/01/02 04:36:18;;;;;;;7.95;2.70;;;;;;;;;;4993536;28;20886;-61
2022/01/02 04:38:45;;;;;;;8.50;2.78;;;;;;;;;;4994298;28;20223;-61
2022/01/02 04:41:10;;;;;;;13.55;2.92;;;;;;;;;;4993653;28;20205;-61
2022/01/02 04:43:36;;;;;;;11.30;3.60;;;;;;;;;;4993466;28;20300;-61
2022/01/02 04:46:01;;;;;;;10.13;2.72;;;;;;;;;;4993802;28;20256;-62
2022/01/02 04:48:26;;;;;;;11.05;2.78;;;;;;;;;;4993906;28;20300;-62
2022/01/02 04:50:52;;;;;;;7.07;2.85;;;;;;;;;;4993482;28;20652;-62
2022/01/02 04:53:17;;;;;;;9.73;2.80;;;;;;;;;;5008628;28;20236;-61
2022/01/02 04:55:42;;;;;;;9.18;3.00;;;;;;;;;;5008685;28;20205;-62
2022/01/02 04:58:07;;;;;;;14.82;2.95;;;;;;;;;;4993551;28;20224;-62
2022/01/02 05:00:33;;;;;;;12.45;3.10;;;;;;;;;;4993858;28;20231;-61
2022/01/02 05:02:58;;;;;;;12.68;2.90;;;;;;;;;;4993567;28;20229;-62
2022/01/02 05:05:23;;;;;;;11.82;3.20;;;;;;;;;;4988917;28;20225;-62
2022/01/02 05:07:49;;;;;;;12.25;3.38;;;;;;;;;;4989200;28;20281;-62
2022/01/02 05:10:14;;;;;;;9.85;3.00;;;;;;;;;;4973255;28;20293;-62
2022/01/02 05:12:39;;;;;;;10.30;3.50;;;;;;;;;;4973214;28;20228;-62
2022/01/02 05:15:05;;;;;;;11.80;3.30;;;;;;;;;;4973496;28;20305;-62
2022/01/02 05:17:30;;;;;;;13.27;3.40;;;;;;;;;;4991094;28;20684;-62
2022/01/02 05:19:55;;;;;;;8.50;3.22;;;;;;;;;;4993407;28;20307;-62
2022/01/02 05:22:21;;;;;;;8.63;3.10;;;;;;;;;;4991692;28;20570;-62
2022/01/02 05:24:46;;;;;;;12.20;3.25;;;;;;;;;;4992978;28;20232;-62
2022/01/02 05:27:11;;;;;;;12.43;3.45;;;;;;;;;;4993194;28;20225;-62
2022/01/02 05:29:37;;;;;;;10.32;3.45;;;;;;;;;;4993201;28;20205;-62
2022/01/02 05:32:02;;;;;;;11.35;3.58;;;;;;;;;;4992511;28;20240;-62
2022/01/02 05:34:27;;;;;;;10.70;3.13;;;;;;;;;;5008485;28;20220;-62
2022/01/02 05:36:52;;;;;;;9.48;3.33;;;;;;;;;;4993323;28;20235;-62
2022/01/02 05:39:18;;;;;;;9.85;3.53;;;;;;;;;;4992282;28;20740;-62
2022/01/02 05:41:44;;;;;;;11.63;3.55;;;;;;;;;;4993351;28;20234;-62
2022/01/02 05:44:09;;;;;;;8.63;3.72;;;;;;;;;;4992495;28;20703;-62
2022/01/02 05:46:34;;;;;;;11.52;3.88;;;;;;;;;;4992760;28;20583;-62
2022/01/02 05:49:00;;;;;;;13.88;4.10;;;;;;;;;;4993054;28;20236;-62
2022/01/02 05:51:25;;;;;;;12.45;3.72;;;;;;;;;;4992532;28;20291;-62
2022/01/02 05:53:50;;;;;;;10.30;4.70;;;;;;;;;;4992792;28;20668;-62
2022/01/02 05:56:15;;;;;;;14.70;4.45;;;;;;;;;;4992561;28;20528;-62
2022/01/02 05:58:41;;;;;;;10.82;4.28;;;;;;;;;;4992708;28;20204;-60
2022/01/02 06:01:06;;;;;;;16.75;7.30;;;;;;;;;;4991841;28;20304;-62
2022/01/02 06:03:31;;;;;;;15.05;5.10;;;;;;;;;;4992661;28;20618;-61
2022/01/02 06:05:57;;;;;;;13.27;5.13;;;;;;;;;;4992604;28;20217;-62
2022/01/02 06:08:22;;;;;;;14.13;4.15;;;;;;;;;;4991807;28;20296;-62
2022/01/02 06:10:47;;;;;;;21.65;7.85;;;;;;;;;;4992469;28;20212;-61
2022/01/02 06:13:13;;;;;;;12.95;5.10;;;;;;;;;;4991776;28;20622;-62
2022/01/02 06:15:38;;;;;;;24.90;11.75;;;;;;;;;;4989856;28;20220;-62
2022/01/02 06:18:03;;;;;;;17.58;5.70;;;;;;;;;;4972619;28;20218;-62
2022/01/02 06:20:29;;;;;;;28.48;12.48;;;;;;;;;;4972419;28;20217;-62
2022/01/02 06:22:54;;;;;;;18.88;6.13;;;;;;;;;;4986802;28;20224;-62
2022/01/02 06:25:20;;;;;;;12.10;4.35;;;;;;;;;;4991555;28;22019;-62
2022/01/02 06:27:45;;;;;;;14.13;4.32;;;;;;;;;;4991868;28;20781;-62
2022/01/02 06:30:11;;;;;;;12.45;4.22;;;;;;;;;;4991667;28;20221;-62
2022/01/02 06:32:36;;;;;;;10.18;4.32;;;;;;;;;;4992339;28;20260;-62
2022/01/02 06:35:01;;;;;;;15.45;4.63;;;;;;;;;;4991296;28;20217;-62
2022/01/02 06:37:26;;;;;;;10.02;3.67;;;;;;;;;;4992254;28;20622;-61
2022/01/02 06:39:52;;;;;;;9.13;4.00;;;;;;;;;;4992015;28;20204;-61
2022/01/02 06:42:17;;;;;;;10.35;5.40;;;;;;;;;;4991304;28;20229;-61
2022/01/02 06:44:42;;;;;;;9.90;3.92;;;;;;;;;;4992230;28;20205;-61
2022/01/02 06:47:08;;;;;;;8.55;3.55;;;;;;;;;;4991195;28;20288;-61
2022/01/02 06:49:33;;;;;;;12.48;3.55;;;;;;;;;;4991464;28;20221;-61
2022/01/02 06:51:58;;;;;;;10.00;3.50;;;;;;;;;;4991840;28;20714;-60
2022/01/02 06:54:23;;;;;;;7.65;3.10;;;;;;;;;;4991596;28;20691;-60
2022/01/02 06:56:49;;;;;;;10.00;3.35;;;;;;;;;;4991302;28;20305;-61
2022/01/02 06:59:14;;;;;;;8.75;3.80;;;;;;;;;;4991355;28;20209;-61
2022/01/02 07:01:40;;;;;;;8.07;3.10;;;;;;;;;;4991345;28;20272;-61
2022/01/02 07:04:05;;;;;;;12.57;3.30;;;;;;;;;;4990962;28;20213;-61
2022/01/02 07:06:30;;;;;;;11.55;4.05;;;;;;;;;;4977860;28;20723;-60
2022/01/02 07:08:55;;;;;;;12.65;3.80;;;;;;;;;;4971794;28;20348;-61
2022/01/02 07:11:21;;;;;;;12.23;4.25;;;;;;;;;;4971367;28;20214;-60
2022/01/02 07:13:46;;;;;;;10.67;3.97;;;;;;;;;;4986049;28;20480;-60
2022/01/02 07:16:11;;;;;;;9.38;3.63;;;;;;;;;;4978014;28;20217;-61
2022/01/02 07:18:36;;;;;;;10.10;3.55;;;;;;;;;;4991142;28;20209;-59
2022/01/02 07:21:02;;;;;;;10.35;3.60;;;;;;;;;;4990738;28;20248;-59
2022/01/02 07:23:27;;;;;;;10.32;3.30;;;;;;;;;;4979717;28;20221;-59
2022/01/02 07:25:52;;;;;;;8.73;3.45;;;;;;;;;;4991305;28;20217;-60
2022/01/02 07:28:19;;;;;;;10.30;3.78;;;;;;;;;;4985207;28;20268;-59
2022/01/02 07:30:44;;;;;;;11.48;3.80;;;;;;;;;;4980842;28;20287;-59
2022/01/02 07:33:09;;;;;;;10.77;3.88;;;;;;;;;;4974300;28;20297;-60
2022/01/02 07:35:34;;;;;;;9.90;4.75;;;;;;;;;;4987850;28;20208;-59
2022/01/02 07:38:00;;;;;;;9.02;3.65;;;;;;;;;;4990488;28;20217;-59
2022/01/02 07:40:25;;;;;;;10.15;3.67;;;;;;;;;;4984601;28;20213;-58
2022/01/02 07:42:50;;;;;;;11.23;3.63;;;;;;;;;;4971726;28;20209;-58
2022/01/02 07:45:16;;;;;;;8.27;3.67;;;;;;;;;;4970849;28;20314;-58
2022/01/02 07:47:41;;;;;;;8.90;3.20;;;;;;;;;;4976918;28;20315;-58
2022/01/02 07:50:07;;;;;;;11.07;3.78;;;;;;;;;;4977274;28;20574;-58
2022/01/02 07:52:32;;;;;;;8.73;3.28;;;;;;;;;;4980861;28;20224;-58
2022/01/02 07:54:57;;;;;;;9.13;2.95;;;;;;;;;;4992280;28;20751;-58
2022/01/02 07:57:22;;;;;;;8.60;3.30;;;;;;;;;;4992340;28;20212;-60
2022/01/02 07:59:48;;;;;;;8.52;3.33;;;;;;;;;;5007380;28;20730;-59
2022/01/02 08:02:13;;;;;;;9.88;3.20;;;;;;;;;;4990291;28;20760;-59
2022/01/02 08:04:38;;;;;;;11.65;3.13;;;;;;;;;;4990780;28;20213;-59
2022/01/02 08:07:04;;;;;;;10.05;3.92;;;;;;;;;;4972031;28;20313;-59
2022/01/02 08:09:29;;;;;;;10.00;4.40;;;;;;;;;;4985041;28;20217;-58
2022/01/02 08:11:54;;;;;;;8.45;3.58;;;;;;;;;;4990445;28;20571;-58
2022/01/02 08:14:21;;;;;;;9.02;3.33;;;;;;;;;;4990002;28;20216;-60
2022/01/02 08:16:46;;;;;;;9.45;3.60;;;;;;;;;;4984501;28;20209;-59
2022/01/02 08:19:12;;;;;;;9.07;3.45;;;;;;;;;;4977222;28;20217;-59
2022/01/02 08:21:37;;;;;;;28.05;21.58;;;;;;;;;;4973232;28;20214;-59
2022/01/02 08:24:02;;;;;;;12.38;4.72;;;;;;;;;;4979574;28;20294;-60
2022/01/02 08:26:28;;;;;;;10.82;6.80;;;;;;;;;;4984506;28;20230;-59
2022/01/02 08:28:53;;;;;;;10.35;4.88;;;;;;;;;;4974888;28;20265;-59
2022/01/02 08:31:18;;;;;;;11.80;3.90;;;;;;;;;;4979173;28;20623;-59
2022/01/02 08:33:44;;;;;;;9.63;3.80;;;;;;;;;;4980855;28;20205;-59
2022/01/02 08:36:09;;;;;;;8.15;3.35;;;;;;;;;;4982332;28;20224;-60
2022/01/02 08:38:34;;;;;;;7.47;3.08;;;;;;;;;;4979356;28;20218;-60
2022/01/02 08:41:00;;;;;;;7.82;3.40;;;;;;;;;;4980625;28;20556;-59
2022/01/02 08:43:25;;;;;;;8.68;3.28;;;;;;;;;;4979814;28;20304;-59
2022/01/02 08:45:50;;;;;;;10.35;3.83;;;;;;;;;;4980305;28;20699;-59
2022/01/02 08:48:16;;;;;;;9.25;3.40;;;;;;;;;;4982087;28;20216;-59
2022/01/02 08:50:41;;;;;;;9.10;3.72;;;;;;;;;;4983056;28;20686;-59
2022/01/02 08:53:06;;;;;;;11.23;3.72;;;;;;;;;;4983765;28;20217;-60
2022/01/02 08:55:33;;;;;;;10.35;5.75;;;;;;;;;;4984787;28;20682;-60
2022/01/02 08:57:59;;;;;;;12.15;7.82;;;;;;;;;;4985167;28;20222;-58
2022/01/02 09:00:24;;;;;;;9.13;3.17;;;;;;;;;;4985377;28;20210;-59
2022/01/02 09:02:49;;;;;;;5.20;2.97;;;;;;;;;;4982043;28;20345;-60
2022/01/02 09:05:15;;;;;;;8.23;3.50;;;;;;;;;;4978981;28;20668;-59
2022/01/02 09:07:40;;;;;;;9.30;3.22;;;;;;;;;;4982489;28;20245;-59
2022/01/02 09:10:05;;;;;;;8.82;2.90;;;;;;;;;;4987423;28;20300;-60
2022/01/02 09:12:30;;;;;;;6.65;3.10;;;;;;;;;;4983083;28;20209;-59
2022/01/02 09:14:56;;;;;;;7.10;2.70;;;;;;;;;;4982364;28;20551;-60
2022/01/02 09:17:21;;;;;;;8.05;3.40;;;;;;;;;;4983195;28;20214;-60
2022/01/02 09:19:48;;;;;;;8.43;3.25;;;;;;;;;;4980858;28;20240;-59
2022/01/02 09:22:14;;;;;;;6.03;2.58;;;;;;;;;;4986993;28;20218;-61
2022/01/02 09:24:39;;;;;;;5.47;2.70;;;;;;;;;;4990253;28;20211;-59
2022/01/02 09:27:04;;;;;;;6.53;3.10;;;;;;;;;;4989182;28;20226;-59
2022/01/02 09:29:30;;;;;;;7.68;2.78;;;;;;;;;;4978632;28;20214;-59
2022/01/02 09:31:56;;;;;;;7.03;3.20;;;;;;;;;;4986562;28;20241;-58
2022/01/02 09:34:21;;;;;;;7.35;2.88;;;;;;;;;;4996347;28;20248;-59
2022/01/02 09:36:46;;;;;;;8.98;3.08;;;;;;;;;;4993415;28;20680;-59
2022/01/02 09:39:12;;;;;;;6.32;2.63;;;;;;;;;;4992168;28;20209;-59
2022/01/02 09:41:38;;;;;;;7.00;3.22;;;;;;;;;;4991791;28;20209;-59
2022/01/02 09:44:03;;;;;;;6.10;2.67;;;;;;;;;;4992620;28;20280;-60
2022/01/02 09:46:28;;;;;;;5.38;2.90;;;;;;;;;;4993054;28;20216;-60
2022/01/02 09:48:54;;;;;;;5.70;2.90;;;;;;;;;;4992605;28;20299;-59
2022/01/02 09:51:20;;;;;;;6.53;2.72;;;;;;;;;;4992187;28;20296;-60
2022/01/02 09:53:46;;;;;;;8.95;3.47;;;;;;;;;;5008049;28;20342;-60
2022/01/02 09:56:12;;;;;;;6.80;2.72;;;;;;;;;;4992243;28;20237;-60
2022/01/02 09:58:38;;;;;;;7.55;3.15;;;;;;;;;;4989320;28;20691;-59
2022/01/02 10:01:03;;;;;;;5.47;2.95;;;;;;;;;;4978017;28;20209;-60
2022/01/02 10:03:40;;;;;;;8.68;3.45;;;;;;;;;;4973156;28;20260;-61
2022/01/02 10:06:05;;;;;;;9.07;3.35;;;;;;;;;;4982173;28;20323;-62
2022/01/02 10:08:31;;;;;;;8.68;3.22;;;;;;;;;;4992799;28;20641;-62
2022/01/02 10:11:01;;;;;;;8.95;3.33;;;;;;;;;;5007407;28;20220;-60
2022/01/02 10:13:39;;;;;;;6.43;3.47;;;;;;;;;;4986130;28;20216;-60
2022/01/02 10:16:06;;;;;;;7.50;3.50;;;;;;;;;;4978465;28;20201;-60
2022/01/02 10:18:32;;;;;;;7.65;3.65;;;;;;;;;;4991173;28;20209;-60
2022/01/02 10:20:58;;;;;;;9.05;3.78;;;;;;;;;;4991802;28;20216;-60
2022/01/02 10:23:23;;;;;;;8.95;3.83;;;;;;;;;;4988983;28;20221;-60
2022/01/02 10:25:56;;;;;;;6.28;3.38;;;;;;;;;;4982933;28;20271;-60
2022/01/02 10:28:28;;;;;;;7.03;3.42;;;;;;;;;;4983583;28;20220;-60
2022/01/02 10:31:01;;;;;;;9.10;3.70;;;;;;;;;;4980986;28;20209;-60
2022/01/02 10:33:27;;;;;;;6.90;3.38;;;;;;;;;;4995605;28;20264;-60
2022/01/02 10:35:59;;;;;;;9.20;3.80;;;;;;;;;;4975456;28;20205;-60
2022/01/02 10:38:25;;;;;;;8.73;4.38;;;;;;;;;;4972052;28;20210;-61
2022/01/02 10:40:50;;;;;;;9.53;4.40;;;;;;;;;;4971783;28;20433;-60
2022/01/02 10:43:22;;;;;;;5.53;3.47;;;;;;;;;;4972263;28;20592;-59
2022/01/02 10:45:50;;;;;;;6.97;3.90;;;;;;;;;;4972445;28;20313;-59
2022/01/02 10:48:18;;;;;;;8.95;4.75;;;;;;;;;;4971451;28;20213;-60
2022/01/02 10:51:02;;;;;;;8.80;4.53;;;;;;;;;;4972517;28;20451;-58
2022/01/02 10:53:28;;;;;;;9.90;4.70;;;;;;;;;;4972115;28;20210;-58
2022/01/02 10:55:53;;;;;;;7.25;3.40;;;;;;;;;;4971833;28;20693;-58
2022/01/02 10:58:19;;;;;;;9.80;4.20;;;;;;;;;;4971642;28;20240;-58
2022/01/02 11:00:44;;;;;;;8.93;3.70;;;;;;;;;;4972216;28;20206;-59
2022/01/02 11:03:09;;;;;;;7.53;3.92;;;;;;;;;;4971488;28;20210;-59
2022/01/02 11:05:35;;;;;;;8.93;3.70;;;;;;;;;;4977740;28;20268;-59
2022/01/02 11:08:01;;;;;;;8.93;5.15;;;;;;;;;;4991235;28;20746;-59
2022/01/02 11:10:28;;;;;;;9.80;4.05;;;;;;;;;;4990427;28;20201;-59
2022/01/02 11:12:54;;;;;;;9.18;3.78;;;;;;;;;;4991076;28;20274;-59
2022/01/02 11:15:20;;;;;;;11.95;4.93;;;;;;;;;;4990901;28;20299;-58
2022/01/02 11:17:45;;;;;;;8.55;3.63;;;;;;;;;;4971630;28;20213;-63
2022/01/02 11:20:12;;;;;;;8.50;3.83;;;;;;;;;;4971353;28;20213;-59
2022/01/02 11:22:41;;;;;;;17.10;7.88;;;;;;;;;;4982958;28;20217;-58
2022/01/02 11:25:09;;;;;;;18.52;9.20;;;;;;;;;;5005463;28;20220;-59
2022/01/02 11:27:41;;;;;;;14.75;7.88;;;;;;;;;;4997564;28;20237;-59
2022/01/02 11:30:28;;;;;;;15.07;6.53;;;;;;;;;;5000881;28;20221;-59
2022/01/02 11:33:09;;;;;;;15.70;8.00;;;;;;;;;;4975083;28;20240;-59
2022/01/02 11:35:35;;;;;;;18.42;10.18;;;;;;;;;;4971414;28;20289;-59
2022/01/02 11:38:02;;;;;;;17.55;9.85;;;;;;;;;;4970860;28;20304;-59
2022/01/02 11:40:42;;;;;;;14.30;6.90;;;;;;;;;;4971442;28;20214;-59
2022/01/02 11:43:07;;;;;;;9.57;3.83;;;;;;;;;;4971365;28;20537;-59
2022/01/02 11:45:39;;;;;;;11.07;4.25;;;;;;;;;;4971114;28;20218;-59
2022/01/02 11:48:23;;;;;;;10.07;3.97;;;;;;;;;;4971196;28;20268;-59
2022/01/02 11:50:49;;;;;;;10.27;3.53;;;;;;;;;;4970873;28;20283;-59
2022/01/02 11:53:23;;;;;;;10.57;3.83;;;;;;;;;;4971039;28;20217;-59
2022/01/02 11:55:49;;;;;;;13.23;4.25;;;;;;;;;;4971277;28;20217;-60
2022/01/02 11:58:33;;;;;;;7.68;3.35;;;;;;;;;;4970543;28;20233;-59
2022/01/02 12:00:59;;;;;;;11.43;3.58;;;;;;;;;;4971240;28;20217;-58
2022/01/02 12:03:40;;;;;;;10.43;3.17;;;;;;;;;;4985514;28;20210;-59
2022/01/02 12:06:20;;;;;;;12.30;3.67;;;;;;;;;;4973756;28;20292;-59
2022/01/02 12:08:45;;;;;;;9.07;2.85;;;;;;;;;;4969602;28;20212;-59
2022/01/02 12:11:37;;;;;;;12.23;3.70;;;;;;;;;;4966730;28;20217;-59
2022/01/02 12:14:03;;;;;;;14.10;3.25;;;;;;;;;;4966166;28;20214;-59
2022/01/02 12:16:33;;;;;;;9.98;3.42;;;;;;;;;;4975999;28;20212;-59
2022/01/02 12:18:58;;;;;;;14.20;3.40;;;;;;;;;;5001903;28;20263;-59
2022/01/02 12:21:24;;;;;;;9.85;3.78;;;;;;;;;;4984663;28;20221;-59
2022/01/02 12:23:53;;;;;;;11.90;3.45;;;;;;;;;;4974474;28;20219;-58
2022/01/02 12:26:21;;;;;;;8.90;3.17;;;;;;;;;;4974140;28;20313;-59
2022/01/02 12:28:47;;;;;;;10.77;3.30;;;;;;;;;;4976299;28;20715;-58
2022/01/02 12:31:13;;;;;;;8.13;2.85;;;;;;;;;;4976006;28;20213;-58
2022/01/02 12:33:38;;;;;;;9.88;3.20;;;;;;;;;;4976810;28;20304;-59
2022/01/02 12:36:08;;;;;;;10.68;3.15;;;;;;;;;;4976815;28;20217;-59
2022/01/02 12:38:52;;;;;;;10.35;3.38;;;;;;;;;;4976584;28;20217;-59
2022/01/02 12:41:18;;;;;;;13.55;3.35;;;;;;;;;;4985112;28;20228;-59
2022/01/02 12:43:50;;;;;;;16.15;3.75;;;;;;;;;;4991743;28;20213;-59
2022/01/02 12:46:30;;;;;;;11.93;3.50;;;;;;;;;;4977152;28;20228;-59
2022/01/02 12:48:55;;;;;;;9.93;3.13;;;;;;;;;;4984854;28;20756;-59
2022/01/02 12:51:20;;;;;;;11.15;3.03;;;;;;;;;;4984642;28;20296;-59
2022/01/02 12:53:57;;;;;;;10.15;2.80;;;;;;;;;;4976645;28;20209;-59
2022/01/02 12:56:33;;;;;;;13.15;3.15;;;;;;;;;;4980380;28;20625;-59
2022/01/02 12:59:11;;;;;;;11.15;3.13;;;;;;;;;;4980844;28;20252;-59
2022/01/02 13:01:46;;;;;;;10.80;3.28;;;;;;;;;;4975357;28;20566;-59
2022/01/02 13:04:11;;;;;;;13.27;3.53;;;;;;;;;;4976291;28;20625;-59
2022/01/02 13:06:37;;;;;;;12.27;3.47;;;;;;;;;;4990254;28;20684;-59
2022/01/02 13:09:02;;;;;;;11.23;3.20;;;;;;;;;;4994756;28;20250;-59
2022/01/02 13:11:34;;;;;;;13.82;3.28;;;;;;;;;;4995580;28;20224;-59
2022/01/02 13:13:59;;;;;;;9.68;3.60;;;;;;;;;;4995461;28;20304;-59
2022/01/02 13:16:24;;;;;;;12.85;3.47;;;;;;;;;;4994366;28;20308;-59
2022/01/02 13:18:50;;;;;;;10.93;3.65;;;;;;;;;;4995500;28;20316;-58
2022/01/02 13:21:16;;;;;;;11.75;3.35;;;;;;;;;;5009583;28;20677;-59
2022/01/02 13:23:41;;;;;;;10.07;3.30;;;;;;;;;;4975469;28;20205;-59
2022/01/02 13:26:17;;;;;;;10.18;3.35;;;;;;;;;;4975457;28;20226;-59
2022/01/02 13:28:42;;;;;;;10.82;3.10;;;;;;;;;;4975857;28;20289;-59
2022/01/02 13:31:08;;;;;;;9.77;3.25;;;;;;;;;;4989683;28;20365;-59
2022/01/02 13:33:39;;;;;;;10.27;3.17;;;;;;;;;;4974940;28;20209;-59
2022/01/02 13:36:11;;;;;;;13.63;3.63;;;;;;;;;;4975639;28;20217;-59
2022/01/02 13:38:49;;;;;;;14.93;3.05;;;;;;;;;;4975760;28;20737;-59
2022/01/02 13:41:15;;;;;;;12.18;3.25;;;;;;;;;;4977592;28;20213;-59
2022/01/02 13:43:40;;;;;;;14.55;3.28;;;;;;;;;;4983924;28;20264;-59
2022/01/02 13:46:05;;;;;;;9.57;2.63;;;;;;;;;;4984687;28;20233;-60
2022/01/02 13:48:30;;;;;;;9.93;2.67;;;;;;;;;;4979339;28;20248;-59
2022/01/02 13:50:58;;;;;;;11.43;2.75;;;;;;;;;;4983535;28;20563;-59
2022/01/02 13:53:25;;;;;;;11.55;2.40;;;;;;;;;;4975158;28;20358;-59
2022/01/02 13:55:52;;;;;;;14.98;2.47;;;;;;;;;;4975174;28;20209;-59
2022/01/02 13:58:19;;;;;;;12.38;2.22;;;;;;;;;;4974599;28;20268;-59
2022/01/02 14:00:45;;;;;;;13.32;2.47;;;;;;;;;;4974966;28;20206;-59
2022/01/02 14:03:23;;;;;;;11.55;2.28;;;;;;;;;;4974770;28;20571;-59
2022/01/02 14:05:49;;;;;;;15.23;2.20;;;;;;;;;;4988214;28;20233;-59
2022/01/02 14:08:14;;;;;;;11.15;2.42;;;;;;;;;;4994052;28;20263;-59
2022/01/02 14:10:40;;;;;;;10.55;2.33;;;;;;;;;;4994791;28;20261;-59
2022/01/02 14:13:11;;;;;;;14.32;2.50;;;;;;;;;;4993957;28;20296;-59
2022/01/02 14:15:36;;;;;;;15.95;2.50;;;;;;;;;;4986681;28;20227;-59
2022/01/02 14:18:02;;;;;;;17.10;5.35;;;;;;;;;;4994145;28;20209;-59
2022/01/02 14:20:29;;;;;;;14.90;2.85;;;;;;;;;;4992837;28;20695;-59
2022/01/02 14:22:55;;;;;;;17.30;2.92;;;;;;;;;;4980176;28;20210;-59
2022/01/02 14:25:20;;;;;;;10.25;2.80;;;;;;;;;;4974099;28;20279;-59
2022/01/02 14:27:46;;;;;;;12.55;2.58;;;;;;;;;;4974452;28;20288;-59
2022/01/02 14:30:12;;;;;;;13.70;3.28;;;;;;;;;;4974312;28;20214;-59
2022/01/02 14:32:37;;;;;;;13.23;2.92;;;;;;;;;;4973812;28;20317;-59
2022/01/02 14:35:03;;;;;;;15.48;2.95;;;;;;;;;;4974292;28;20715;-59
2022/01/02 14:37:30;;;;;;;11.50;2.85;;;;;;;;;;4974338;28;20596;-59